createdAt,value
2018-04-30T00:01:30.729Z,1.30
2018-04-30T00:03:59.075Z,1.30
2018-04-30T00:06:27.306Z,2.33
2018-04-30T00:08:55.569Z,1.40
2018-04-30T00:11:23.848Z,1.30
2018-04-30T00:13:52.118Z,1.40
2018-04-30T00:16:20.417Z,1.20
2018-04-30T00:18:48.678Z,1.00
2018-04-30T00:21:16.986Z,1.20
2018-04-30T00:23:45.765Z,1.40
2018-04-30T00:26:14.350Z,1.00
2018-04-30T00:28:42.633Z,0.90
2018-04-30T00:31:10.937Z,1.00
2018-04-30T00:33:39.288Z,1.10
2018-04-30T00:36:07.511Z,1.10
2018-04-30T00:38:35.793Z,0.90
2018-04-30T00:41:04.096Z,1.17
2018-04-30T00:43:32.410Z,0.83
2018-04-30T00:46:00.734Z,0.90
2018-04-30T00:48:29.047Z,0.80
2018-04-30T00:50:57.931Z,1.10
2018-04-30T00:53:26.330Z,1.07
2018-04-30T00:55:54.635Z,0.70
2018-04-30T00:58:22.918Z,1.00
2018-04-30T01:00:51.185Z,1.07
2018-04-30T01:03:20.161Z,0.90
2018-04-30T01:05:48.389Z,0.80
2018-04-30T01:08:16.686Z,1.03
2018-04-30T01:10:44.941Z,1.20
2018-04-30T01:13:14.166Z,1.10
2018-04-30T01:15:42.419Z,1.03
2018-04-30T01:18:10.703Z,1.10
2018-04-30T01:20:38.954Z,0.80
2018-04-30T01:23:07.257Z,1.10
2018-04-30T01:25:35.558Z,1.50
2018-04-30T01:28:03.814Z,0.90
2018-04-30T01:30:32.095Z,1.03
2018-04-30T01:33:00.339Z,0.70
2018-04-30T01:35:28.606Z,0.80
2018-04-30T01:37:56.894Z,0.90
2018-04-30T01:40:25.184Z,0.87
2018-04-30T01:42:53.427Z,0.80
2018-04-30T01:45:21.766Z,0.80
2018-04-30T01:47:50.278Z,0.80
2018-04-30T01:50:18.596Z,0.83
2018-04-30T01:52:46.850Z,0.90
2018-04-30T01:55:15.165Z,0.97
2018-04-30T01:57:43.425Z,0.97
2018-04-30T02:00:11.703Z,0.90
2018-04-30T02:02:40.010Z,0.90
2018-04-30T02:05:08.268Z,0.90
2018-04-30T02:07:36.542Z,0.70
2018-04-30T02:10:04.842Z,0.80
2018-04-30T02:12:33.161Z,0.80
2018-04-30T02:15:01.443Z,0.90
2018-04-30T02:17:29.714Z,1.00
2018-04-30T02:19:58.010Z,0.90
2018-04-30T02:22:26.326Z,0.70
2018-04-30T02:24:54.559Z,0.90
2018-04-30T02:27:22.861Z,0.83
2018-04-30T02:29:51.111Z,0.80
2018-04-30T02:32:19.427Z,0.77
2018-04-30T02:34:47.704Z,1.00
2018-04-30T02:37:16.142Z,1.10
2018-04-30T02:39:44.369Z,0.90
2018-04-30T02:42:12.686Z,0.70
2018-04-30T02:44:40.990Z,1.00
2018-04-30T02:47:09.239Z,0.80
2018-04-30T02:49:37.507Z,1.10
2018-04-30T02:52:05.813Z,0.80
2018-04-30T02:54:34.184Z,0.70
2018-04-30T02:57:02.425Z,1.00
2018-04-30T02:59:30.709Z,1.00
2018-04-30T03:01:58.997Z,1.10
2018-04-30T03:04:27.260Z,0.93
2018-04-30T03:06:55.511Z,1.00
2018-04-30T03:09:23.809Z,0.90
2018-04-30T03:11:52.085Z,0.80
2018-04-30T03:14:20.377Z,0.97
2018-04-30T03:16:48.619Z,0.83
2018-04-30T03:19:16.886Z,0.93
2018-04-30T03:21:45.165Z,0.90
2018-04-30T03:24:13.468Z,0.70
2018-04-30T03:26:41.724Z,0.90
2018-04-30T03:29:10.017Z,0.90
2018-04-30T03:31:38.276Z,0.80
2018-04-30T03:34:06.563Z,1.00
2018-04-30T03:36:34.907Z,1.03
2018-04-30T03:39:03.171Z,0.90
2018-04-30T03:41:31.458Z,0.90
2018-04-30T03:43:59.739Z,1.00
2018-04-30T03:46:28.022Z,1.33
2018-04-30T03:48:56.277Z,0.80
2018-04-30T03:51:24.545Z,0.80
2018-04-30T03:53:52.806Z,0.80
2018-04-30T03:56:21.090Z,0.80
2018-04-30T03:58:49.334Z,0.80
2018-04-30T04:01:29.281Z,0.90
2018-04-30T04:04:09.278Z,0.67
2018-04-30T04:06:49.205Z,0.80
2018-04-30T04:09:17.458Z,0.80
2018-04-30T04:11:45.761Z,0.70
2018-04-30T04:14:14.114Z,0.93
2018-04-30T04:16:42.390Z,0.83
2018-04-30T04:19:10.846Z,0.70
2018-04-30T04:21:39.115Z,0.80
2018-04-30T04:24:07.401Z,0.60
2018-04-30T04:26:35.697Z,0.80
2018-04-30T04:29:03.978Z,0.60
2018-04-30T04:31:32.258Z,0.90
2018-04-30T04:34:00.565Z,0.80
2018-04-30T04:36:28.870Z,0.97
2018-04-30T04:38:57.149Z,1.00
2018-04-30T04:41:25.411Z,0.93
2018-04-30T04:43:53.704Z,0.90
2018-04-30T04:46:21.963Z,0.77
2018-04-30T04:48:50.238Z,0.90
2018-04-30T04:51:18.510Z,0.70
2018-04-30T04:53:46.804Z,0.80
2018-04-30T04:56:15.063Z,0.70
2018-04-30T04:58:43.355Z,0.80
2018-04-30T05:01:11.599Z,0.63
2018-04-30T05:03:39.897Z,1.00
2018-04-30T05:06:08.177Z,0.93
2018-04-30T05:08:36.522Z,0.67
2018-04-30T05:11:04.785Z,0.77
2018-04-30T05:13:33.096Z,0.90
2018-04-30T05:16:01.352Z,0.90
2018-04-30T05:18:29.675Z,0.83
2018-04-30T05:20:57.954Z,0.80
2018-04-30T05:23:26.246Z,0.90
2018-04-30T05:25:54.501Z,0.90
2018-04-30T05:28:22.944Z,0.90
2018-04-30T05:30:51.206Z,0.90
2018-04-30T05:33:19.481Z,1.00
2018-04-30T05:35:47.758Z,1.00
2018-04-30T05:38:16.026Z,0.90
2018-04-30T05:40:44.420Z,0.70
2018-04-30T05:43:12.678Z,0.93
2018-04-30T05:45:41.011Z,0.90
2018-04-30T05:48:09.284Z,1.17
2018-04-30T05:50:37.567Z,1.10
2018-04-30T05:53:05.810Z,0.90
2018-04-30T05:55:34.113Z,0.90
2018-04-30T05:58:02.391Z,1.03
2018-04-30T06:00:30.784Z,0.80
2018-04-30T06:02:58.985Z,0.87
2018-04-30T06:05:27.321Z,0.90
2018-04-30T06:07:56.765Z,0.80
2018-04-30T06:10:26.622Z,1.00
2018-04-30T06:12:55.632Z,0.80
2018-04-30T06:15:23.962Z,0.97
2018-04-30T06:17:52.226Z,1.17
2018-04-30T06:20:22.352Z,1.10
2018-04-30T06:22:51.510Z,1.10
2018-04-30T06:25:19.787Z,0.80
2018-04-30T06:27:48.072Z,1.00
2018-04-30T06:30:16.327Z,1.00
2018-04-30T06:32:44.622Z,1.00
2018-04-30T06:35:12.923Z,1.00
2018-04-30T06:37:41.355Z,0.80
2018-04-30T06:40:09.640Z,1.03
2018-04-30T06:42:37.970Z,0.80
2018-04-30T06:45:06.256Z,1.00
2018-04-30T06:47:34.640Z,1.00
2018-04-30T06:50:02.874Z,0.90
2018-04-30T06:52:31.800Z,0.80
2018-04-30T06:55:00.774Z,0.87
2018-04-30T06:57:29.198Z,0.93
2018-04-30T06:59:57.502Z,0.90
2018-04-30T07:02:25.794Z,0.93
2018-04-30T07:04:54.133Z,1.10
2018-04-30T07:07:22.540Z,0.80
2018-04-30T07:09:50.902Z,1.00
2018-04-30T07:12:19.202Z,1.10
2018-04-30T07:14:47.666Z,1.10
2018-04-30T07:17:15.967Z,1.00
2018-04-30T07:19:44.200Z,0.93
2018-04-30T07:22:12.628Z,0.90
2018-04-30T07:24:40.928Z,0.97
2018-04-30T07:27:09.362Z,1.00
2018-04-30T07:29:38.162Z,0.80
2018-04-30T07:32:07.470Z,0.90
2018-04-30T07:34:35.745Z,0.90
2018-04-30T07:37:04.029Z,1.00
2018-04-30T07:39:32.311Z,0.93
2018-04-30T07:42:00.603Z,0.77
2018-04-30T07:44:28.866Z,1.20
2018-04-30T07:46:57.109Z,1.53
2018-04-30T07:49:25.501Z,0.93
2018-04-30T07:51:53.818Z,1.07
2018-04-30T07:54:22.136Z,1.00
2018-04-30T07:56:50.417Z,1.30
2018-04-30T07:59:18.733Z,0.80
2018-04-30T08:01:47.081Z,1.50
2018-04-30T08:04:15.345Z,1.10
2018-04-30T08:06:43.646Z,0.80
2018-04-30T08:09:11.936Z,1.10
2018-04-30T08:11:40.177Z,1.20
2018-04-30T08:14:08.518Z,0.93
2018-04-30T08:16:37.195Z,1.00
2018-04-30T08:19:05.510Z,1.10
2018-04-30T08:21:33.813Z,0.83
2018-04-30T08:24:02.093Z,0.80
2018-04-30T08:26:30.380Z,1.40
2018-04-30T08:28:58.654Z,0.90
2018-04-30T08:31:27.762Z,1.07
2018-04-30T08:33:56.018Z,1.00
2018-04-30T08:36:24.291Z,1.00
2018-04-30T08:38:52.602Z,1.20
2018-04-30T08:41:20.947Z,0.90
2018-04-30T08:43:49.273Z,1.40
2018-04-30T08:46:17.551Z,0.93
2018-04-30T08:48:45.842Z,1.47
2018-04-30T08:51:14.221Z,0.80
2018-04-30T08:53:42.544Z,0.83
2018-04-30T08:56:10.890Z,0.90
2018-04-30T08:58:39.135Z,1.10
2018-04-30T09:01:07.490Z,0.90
2018-04-30T09:03:35.767Z,1.00
2018-04-30T09:06:04.115Z,1.53
2018-04-30T09:08:32.513Z,0.80
2018-04-30T09:11:00.867Z,0.87
2018-04-30T09:13:29.150Z,0.70
2018-04-30T09:15:57.547Z,0.80
2018-04-30T09:18:25.843Z,0.80
2018-04-30T09:20:54.179Z,1.83
2018-04-30T09:23:22.695Z,0.70
2018-04-30T09:25:51.003Z,1.00
2018-04-30T09:28:19.339Z,0.80
2018-04-30T09:30:47.616Z,0.90
2018-04-30T09:33:15.900Z,1.23
2018-04-30T09:35:44.269Z,0.80
2018-04-30T09:38:12.603Z,1.00
2018-04-30T09:40:40.937Z,1.13
2018-04-30T09:43:09.274Z,1.07
2018-04-30T09:45:37.595Z,1.10
2018-04-30T09:48:05.900Z,0.90
2018-04-30T09:50:34.153Z,1.00
2018-04-30T09:53:02.447Z,0.80
2018-04-30T09:55:30.757Z,0.87
2018-04-30T09:57:59.118Z,1.20
2018-04-30T10:00:27.346Z,1.10
2018-04-30T10:02:56.594Z,1.17
2018-04-30T10:05:25.501Z,1.27
2018-04-30T10:07:53.795Z,0.90
2018-04-30T10:10:22.096Z,0.90
2018-04-30T10:12:51.394Z,0.73
2018-04-30T10:15:19.701Z,1.00
2018-04-30T10:17:48.070Z,0.90
2018-04-30T10:20:16.337Z,0.90
2018-04-30T10:22:44.583Z,0.83
2018-04-30T10:25:12.891Z,0.97
2018-04-30T10:27:41.153Z,0.93
2018-04-30T10:30:09.449Z,1.10
2018-04-30T10:32:37.855Z,0.93
2018-04-30T10:35:06.257Z,1.00
2018-04-30T10:37:34.530Z,1.80
2018-04-30T10:40:02.829Z,0.80
2018-04-30T10:42:31.316Z,0.93
2018-04-30T10:44:59.575Z,1.17
2018-04-30T10:47:27.860Z,0.93
2018-04-30T10:49:56.170Z,0.90
2018-04-30T10:52:24.464Z,1.10
2018-04-30T10:54:52.726Z,0.97
2018-04-30T10:57:21.145Z,0.90
2018-04-30T10:59:49.431Z,1.10
2018-04-30T11:02:17.811Z,0.93
2018-04-30T11:04:46.915Z,1.10
2018-04-30T11:07:15.231Z,0.90
2018-04-30T11:09:43.554Z,0.97
2018-04-30T11:12:11.899Z,1.07
2018-04-30T11:14:40.264Z,1.10
2018-04-30T11:17:08.592Z,1.00
2018-04-30T11:19:36.846Z,0.80
2018-04-30T11:22:05.161Z,1.07
2018-04-30T11:24:33.460Z,1.10
2018-04-30T11:27:01.800Z,1.10
2018-04-30T11:29:30.974Z,1.07
2018-04-30T11:31:59.337Z,1.27
2018-04-30T11:34:27.828Z,1.10
2018-04-30T11:36:56.218Z,0.87
2018-04-30T11:39:24.519Z,1.00
2018-04-30T11:41:52.868Z,1.20
2018-04-30T11:44:21.204Z,1.10
2018-04-30T11:46:49.545Z,1.30
2018-04-30T11:49:17.856Z,1.20
2018-04-30T11:51:46.241Z,0.90
2018-04-30T11:54:14.622Z,1.13
2018-04-30T11:56:42.968Z,1.10
2018-04-30T11:59:11.463Z,0.97
2018-04-30T12:01:39.692Z,1.10
2018-04-30T12:04:07.996Z,1.00
2018-04-30T12:06:36.343Z,1.20
2018-04-30T12:09:05.474Z,0.83
2018-04-30T12:11:33.753Z,1.10
2018-04-30T12:14:02.120Z,0.90
2018-04-30T12:16:30.512Z,1.43
2018-04-30T12:18:58.975Z,1.20
2018-04-30T12:21:28.190Z,1.40
2018-04-30T12:23:56.548Z,1.10
2018-04-30T12:26:25.039Z,1.00
2018-04-30T12:28:53.534Z,1.30
2018-04-30T12:31:21.964Z,1.00
2018-04-30T12:33:50.193Z,1.00
2018-04-30T12:36:18.519Z,1.30
2018-04-30T12:38:46.810Z,1.10
2018-04-30T12:41:15.103Z,1.00
2018-04-30T12:43:43.541Z,1.10
2018-04-30T12:46:11.784Z,1.10
2018-04-30T12:48:40.062Z,1.10
2018-04-30T12:51:08.370Z,1.20
2018-04-30T12:53:36.638Z,1.50
2018-04-30T12:56:04.996Z,1.13
2018-04-30T12:58:33.299Z,1.20
2018-04-30T13:01:01.592Z,1.30
2018-04-30T13:03:29.902Z,1.10
2018-04-30T13:05:58.196Z,1.40
2018-04-30T13:08:26.478Z,1.20
2018-04-30T13:10:55.016Z,1.00
2018-04-30T13:13:23.289Z,1.20
2018-04-30T13:15:51.603Z,1.30
2018-04-30T13:18:19.918Z,0.97
2018-04-30T13:20:48.274Z,0.83
2018-04-30T13:23:16.619Z,0.93
2018-04-30T13:25:44.913Z,1.43
2018-04-30T13:28:13.225Z,1.30
2018-04-30T13:30:41.519Z,1.20
2018-04-30T13:33:09.854Z,1.17
2018-04-30T13:35:39.309Z,1.87
2018-04-30T13:38:07.844Z,1.40
2018-04-30T13:40:36.183Z,1.07
2018-04-30T13:43:04.927Z,1.20
2018-04-30T13:45:33.248Z,2.57
2018-04-30T13:48:01.574Z,1.10
2018-04-30T13:50:30.159Z,1.20
2018-04-30T13:52:58.636Z,1.17
2018-04-30T13:55:26.923Z,0.93
2018-04-30T13:57:55.200Z,1.20
2018-04-30T14:00:24.167Z,1.30
2018-04-30T14:02:52.505Z,1.20
2018-04-30T14:05:20.778Z,1.80
2018-04-30T14:07:49.138Z,1.20
2018-04-30T14:10:17.451Z,1.27
2018-04-30T14:12:45.726Z,1.40
2018-04-30T14:15:14.133Z,1.40
2018-04-30T14:17:42.503Z,1.10
2018-04-30T14:20:10.759Z,1.23
2018-04-30T14:22:39.070Z,1.00
2018-04-30T14:25:07.901Z,1.50
2018-04-30T14:27:36.579Z,1.10
2018-04-30T14:30:04.856Z,1.10
2018-04-30T14:32:33.166Z,1.40
2018-04-30T14:35:01.501Z,1.30
2018-04-30T14:37:29.826Z,0.90
2018-04-30T14:39:58.133Z,1.77
2018-04-30T14:42:27.356Z,1.10
2018-04-30T14:44:55.719Z,1.27
2018-04-30T14:47:24.520Z,1.07
2018-04-30T14:49:53.490Z,0.80
2018-04-30T14:52:21.802Z,1.10
2018-04-30T14:54:50.977Z,2.23
2018-04-30T14:57:19.459Z,1.07
2018-04-30T14:59:47.810Z,0.83
2018-04-30T15:02:16.238Z,1.10
2018-04-30T15:04:44.525Z,1.60
2018-04-30T15:07:12.862Z,1.17
2018-04-30T15:09:41.778Z,1.10
2018-04-30T15:12:10.980Z,1.73
2018-04-30T15:14:39.234Z,1.20
2018-04-30T15:17:08.401Z,1.30
2018-04-30T15:19:36.962Z,1.60
2018-04-30T15:22:05.294Z,1.10
2018-04-30T15:24:33.626Z,1.33
2018-04-30T15:27:01.927Z,1.30
2018-04-30T15:29:30.280Z,1.20
2018-04-30T15:31:58.637Z,1.70
2018-04-30T15:34:26.941Z,1.13
2018-04-30T15:36:55.260Z,1.10
2018-04-30T15:39:23.596Z,1.00
2018-04-30T15:41:51.865Z,1.20
2018-04-30T15:44:20.886Z,0.90
2018-04-30T15:46:49.213Z,1.00
2018-04-30T15:49:17.537Z,1.10
2018-04-30T15:51:45.841Z,0.90
2018-04-30T15:54:14.139Z,1.13
2018-04-30T15:56:42.470Z,0.80
2018-04-30T15:59:10.731Z,0.67
2018-04-30T16:01:39.021Z,0.80
2018-04-30T16:04:08.479Z,0.87
2018-04-30T16:06:36.775Z,1.00
2018-04-30T16:09:05.938Z,0.90
2018-04-30T16:11:34.231Z,0.70
2018-04-30T16:14:02.615Z,0.80
2018-04-30T16:16:31.146Z,1.00
2018-04-30T16:18:59.555Z,1.37
2018-04-30T16:21:27.826Z,1.00
2018-04-30T16:23:56.142Z,0.90
2018-04-30T16:26:24.619Z,0.93
2018-04-30T16:28:52.944Z,1.33
2018-04-30T16:31:22.217Z,1.07
2018-04-30T16:33:51.288Z,1.20
2018-04-30T16:36:19.568Z,1.00
2018-04-30T16:38:47.842Z,0.90
2018-04-30T16:41:16.184Z,1.07
2018-04-30T16:43:44.943Z,1.50
2018-04-30T16:46:13.289Z,1.10
2018-04-30T16:48:41.573Z,0.90
2018-04-30T16:51:09.862Z,1.43
2018-04-30T16:53:38.141Z,0.90
2018-04-30T16:56:06.513Z,0.90
2018-04-30T16:58:34.869Z,0.90
2018-04-30T17:01:03.160Z,0.90
2018-04-30T17:03:31.445Z,1.10
2018-04-30T17:05:59.794Z,0.80
2018-04-30T17:08:28.099Z,0.97
2018-04-30T17:10:56.379Z,1.00
2018-04-30T17:13:24.673Z,1.13
2018-04-30T17:15:52.930Z,1.07
2018-04-30T17:18:21.245Z,1.00
2018-04-30T17:20:49.491Z,0.90
2018-04-30T17:23:17.819Z,1.10
2018-04-30T17:25:46.126Z,0.97
2018-04-30T17:28:14.425Z,0.60
2018-04-30T17:30:42.698Z,1.47
2018-04-30T17:33:10.983Z,1.00
2018-04-30T17:35:39.351Z,0.60
2018-04-30T17:38:07.664Z,1.00
2018-04-30T17:40:36.011Z,1.40
2018-04-30T17:43:04.286Z,0.90
2018-04-30T17:45:32.570Z,0.80
2018-04-30T17:48:00.881Z,0.93
2018-04-30T17:50:29.135Z,0.80
2018-04-30T17:52:57.464Z,0.87
2018-04-30T17:55:25.743Z,1.00
2018-04-30T17:57:54.033Z,1.00
2018-04-30T18:00:22.334Z,1.00
2018-04-30T18:02:50.609Z,0.90
2018-04-30T18:05:18.876Z,1.40
2018-04-30T18:07:47.967Z,1.33
2018-04-30T18:10:16.661Z,0.90
2018-04-30T18:12:44.983Z,0.80
2018-04-30T18:15:13.301Z,0.90
2018-04-30T18:17:41.582Z,1.10
2018-04-30T18:20:10.574Z,0.90
2018-04-30T18:22:39.776Z,1.00
2018-04-30T18:25:08.129Z,0.80
2018-04-30T18:27:36.431Z,0.80
2018-04-30T18:30:04.780Z,0.90
2018-04-30T18:32:33.057Z,1.10
2018-04-30T18:35:01.364Z,1.23
2018-04-30T18:37:29.651Z,1.20
2018-04-30T18:39:58.582Z,1.30
2018-04-30T18:42:28.034Z,0.83
2018-04-30T18:44:56.307Z,0.90
2018-04-30T18:47:24.696Z,0.97
2018-04-30T18:49:52.991Z,1.50
2018-04-30T18:52:21.594Z,1.00
2018-04-30T18:54:49.869Z,0.80
2018-04-30T18:57:18.176Z,1.00
2018-04-30T18:59:48.301Z,1.57
2018-04-30T19:02:17.022Z,1.00
2018-04-30T19:04:45.419Z,0.80
2018-04-30T19:07:13.767Z,0.90
2018-04-30T19:09:42.061Z,1.10
2018-04-30T19:12:10.402Z,1.00
2018-04-30T19:14:38.715Z,1.00
2018-04-30T19:17:07.063Z,1.50
2018-04-30T19:19:35.330Z,0.93
2018-04-30T19:22:04.645Z,0.90
2018-04-30T19:24:33.038Z,1.30
2018-04-30T19:27:01.360Z,2.10
2018-04-30T19:29:30.472Z,1.20
2018-04-30T19:31:59.515Z,1.00
2018-04-30T19:34:27.793Z,1.10
2018-04-30T19:36:56.133Z,1.17
2018-04-30T19:39:24.450Z,0.90
2018-04-30T19:41:52.730Z,1.20
2018-04-30T19:44:21.043Z,0.80
2018-04-30T19:46:49.450Z,1.10
2018-04-30T19:49:17.815Z,1.43
2018-04-30T19:51:46.137Z,1.20
2018-04-30T19:54:14.420Z,1.57
2018-04-30T19:56:42.708Z,1.30
2018-04-30T19:59:10.992Z,1.10
2018-04-30T20:01:39.347Z,1.00
2018-04-30T20:04:07.662Z,1.10
2018-04-30T20:06:35.927Z,1.33
2018-04-30T20:09:04.281Z,1.00
2018-04-30T20:11:32.569Z,1.00
2018-04-30T20:14:00.862Z,1.73
2018-04-30T20:16:29.123Z,1.70
2018-04-30T20:18:57.432Z,1.20
2018-04-30T20:21:26.729Z,0.93
2018-04-30T20:23:55.060Z,1.20
2018-04-30T20:26:23.357Z,1.40
2018-04-30T20:28:51.753Z,0.90
2018-04-30T20:31:20.731Z,1.30
2018-04-30T20:33:49.000Z,1.33
2018-04-30T20:36:17.299Z,1.33
2018-04-30T20:38:45.557Z,1.40
2018-04-30T20:41:13.978Z,0.90
2018-04-30T20:43:42.257Z,1.10
2018-04-30T20:46:10.572Z,1.40
2018-04-30T20:48:38.841Z,1.27
2018-04-30T20:51:07.163Z,1.13
2018-04-30T20:53:35.434Z,1.20
2018-04-30T20:56:03.722Z,1.80
2018-04-30T20:58:32.085Z,1.30
2018-04-30T21:01:00.787Z,1.00
2018-04-30T21:03:29.783Z,1.53
2018-04-30T21:05:58.066Z,0.87
2018-04-30T21:08:26.369Z,0.90
2018-04-30T21:10:54.638Z,1.17
2018-04-30T21:13:22.924Z,1.10
2018-04-30T21:15:51.227Z,1.00
2018-04-30T21:18:19.495Z,1.07
2018-04-30T21:20:47.815Z,2.23
2018-04-30T21:23:16.101Z,2.20
2018-04-30T21:25:44.487Z,1.10
2018-04-30T21:28:13.232Z,1.10
2018-04-30T21:30:41.594Z,1.20
2018-04-30T21:33:09.880Z,1.70
2018-04-30T21:35:38.171Z,1.20
2018-04-30T21:38:06.468Z,1.20
2018-04-30T21:40:34.796Z,1.33
2018-04-30T21:43:03.105Z,2.17
2018-04-30T21:45:31.412Z,1.40
2018-04-30T21:47:59.767Z,1.17
2018-04-30T21:50:28.626Z,1.83
2018-04-30T21:52:57.474Z,1.20
2018-04-30T21:55:25.896Z,1.30
2018-04-30T21:57:54.945Z,1.23
2018-04-30T22:00:28.220Z,1.27
2018-04-30T22:02:56.478Z,1.20
2018-04-30T22:05:24.784Z,1.57
2018-04-30T22:07:54.050Z,2.33
2018-04-30T22:10:23.153Z,1.00
2018-04-30T22:12:51.504Z,1.30
2018-04-30T22:15:19.769Z,1.80
2018-04-30T22:17:48.624Z,1.10
2018-04-30T22:20:17.007Z,0.90
2018-04-30T22:22:45.289Z,0.97
2018-04-30T22:25:13.660Z,1.20
2018-04-30T22:27:42.262Z,1.20
2018-04-30T22:30:10.557Z,0.90
2018-04-30T22:32:39.324Z,1.00
2018-04-30T22:35:07.661Z,1.30
2018-04-30T22:37:36.216Z,0.97
2018-04-30T22:40:06.814Z,1.10
2018-04-30T22:42:35.136Z,1.10
2018-04-30T22:45:03.402Z,1.23
2018-04-30T22:47:31.657Z,0.80
2018-04-30T22:49:59.970Z,1.07
2018-04-30T22:52:29.529Z,0.90
2018-04-30T22:54:57.805Z,1.00
2018-04-30T22:57:26.602Z,0.87
2018-04-30T22:59:54.918Z,0.80
2018-04-30T23:02:23.165Z,0.93
2018-04-30T23:04:51.438Z,0.90
2018-04-30T23:07:19.722Z,0.70
2018-04-30T23:09:48.392Z,2.17
2018-04-30T23:12:16.699Z,13.57
2018-04-30T23:14:45.245Z,3.93
2018-04-30T23:17:14.548Z,0.80
2018-04-30T23:19:42.857Z,1.40
2018-04-30T23:22:14.831Z,5.40
2018-04-30T23:24:43.667Z,13.23
2018-04-30T23:27:11.984Z,12.40
2018-04-30T23:29:40.250Z,5.57
2018-04-30T23:32:08.556Z,5.97
2018-04-30T23:34:36.821Z,4.97
2018-04-30T23:37:05.998Z,6.07
2018-04-30T23:39:34.263Z,18.37
2018-04-30T23:42:02.584Z,36.30
2018-04-30T23:44:30.848Z,133.33
2018-04-30T23:46:59.204Z,179.23
2018-04-30T23:49:27.519Z,156.07
2018-04-30T23:51:55.845Z,175.17
2018-04-30T23:54:24.173Z,156.37
2018-04-30T23:56:52.503Z,136.70
2018-04-30T23:59:20.784Z,46.17
